Morros, Brazil
Current Conditions -  °F | °C
As of 10:00 PM on Monday 24 Nov 2014 (Local Time) from SBSL Reporting Station
Few Clouds Few Clouds  
Wind Chill: 81°   Ceiling: Unl
Heat Index: 85°   Visibility: 6mi
Dew Point: 72°   Wind: 10mph
Humidity: 74%   Direction: 50°NE
Pressure: 29.88"   Gusts: NA
Location:  2.86°S, 44.04°W
Report Text: SBSL 250100Z 05009KT 9999 FEW017 27/22 Q1012
Loading
Personal Weather Stations






























Interactive Weather Map New forecast layout! Learn more

10-Day Weather Forecast

Advertisements
Track Severe Weather on mobile